sensor_id;sensor_type;location;lat;lon;timestamp;P1;durP1;ratioP1;P2;durP2;ratioP2
30647;SDS011;17683;53.360;9.736;2022-08-30T00:00:40;2.20;;;1.30;;
30647;SDS011;17683;53.360;9.736;2022-08-30T00:05:51;2.63;;;1.90;;
30647;SDS011;17683;53.360;9.736;2022-08-30T00:08:18;2.95;;;1.58;;
30647;SDS011;17683;53.360;9.736;2022-08-30T00:10:44;3.40;;;1.80;;
30647;SDS011;17683;53.360;9.736;2022-08-30T00:13:11;2.63;;;1.52;;
30647;SDS011;17683;53.360;9.736;2022-08-30T00:15:40;4.50;;;1.58;;
30647;SDS011;17683;53.360;9.736;2022-08-30T00:18:07;4.55;;;1.50;;
30647;SDS011;17683;53.360;9.736;2022-08-30T00:20:33;4.00;;;1.70;;
30647;SDS011;17683;53.360;9.736;2022-08-30T00:23:00;3.92;;;1.42;;
30647;SDS011;17683;53.360;9.736;2022-08-30T00:25:27;3.20;;;1.33;;
30647;SDS011;17683;53.360;9.736;2022-08-30T00:27:53;2.58;;;1.40;;
30647;SDS011;17683;53.360;9.736;2022-08-30T00:30:19;2.20;;;1.75;;
30647;SDS011;17683;53.360;9.736;2022-08-30T00:32:46;2.42;;;1.17;;
30647;SDS011;17683;53.360;9.736;2022-08-30T00:35:13;4.00;;;1.77;;
30647;SDS011;17683;53.360;9.736;2022-08-30T00:37:42;2.42;;;1.52;;
30647;SDS011;17683;53.360;9.736;2022-08-30T00:40:08;6.10;;;1.63;;
30647;SDS011;17683;53.360;9.736;2022-08-30T00:42:36;2.78;;;1.45;;
30647;SDS011;17683;53.360;9.736;2022-08-30T00:47:46;3.53;;;1.58;;
30647;SDS011;17683;53.360;9.736;2022-08-30T00:50:13;3.25;;;1.92;;
30647;SDS011;17683;53.360;9.736;2022-08-30T00:52:43;3.20;;;1.38;;
30647;SDS011;17683;53.360;9.736;2022-08-30T00:55:12;2.47;;;1.42;;
30647;SDS011;17683;53.360;9.736;2022-08-30T00:57:39;1.60;;;1.40;;
30647;SDS011;17683;53.360;9.736;2022-08-30T01:00:07;4.80;;;1.50;;
30647;SDS011;17683;53.360;9.736;2022-08-30T01:02:33;2.22;;;1.50;;
30647;SDS011;17683;53.360;9.736;2022-08-30T01:05:00;4.93;;;1.50;;
30647;SDS011;17683;53.360;9.736;2022-08-30T01:07:27;2.58;;;1.42;;
30647;SDS011;17683;53.360;9.736;2022-08-30T01:09:53;2.45;;;1.58;;
30647;SDS011;17683;53.360;9.736;2022-08-30T01:12:19;2.58;;;1.52;;
30647;SDS011;17683;53.360;9.736;2022-08-30T01:14:45;2.58;;;1.27;;
30647;SDS011;17683;53.360;9.736;2022-08-30T01:17:11;3.13;;;1.60;;
30647;SDS011;17683;53.360;9.736;2022-08-30T01:22:26;6.97;;;1.70;;
30647;SDS011;17683;53.360;9.736;2022-08-30T01:25:03;5.18;;;1.45;;
30647;SDS011;17683;53.360;9.736;2022-08-30T01:27:31;2.55;;;1.52;;
30647;SDS011;17683;53.360;9.736;2022-08-30T01:30:00;2.95;;;1.20;;
30647;SDS011;17683;53.360;9.736;2022-08-30T01:32:27;4.35;;;1.40;;
30647;SDS011;17683;53.360;9.736;2022-08-30T01:34:54;3.80;;;1.25;;
30647;SDS011;17683;53.360;9.736;2022-08-30T01:37:23;5.60;;;1.73;;
30647;SDS011;17683;53.360;9.736;2022-08-30T01:39:51;2.83;;;1.42;;
30647;SDS011;17683;53.360;9.736;2022-08-30T01:42:17;2.30;;;1.50;;
30647;SDS011;17683;53.360;9.736;2022-08-30T01:44:43;3.17;;;1.63;;
30647;SDS011;17683;53.360;9.736;2022-08-30T01:47:10;2.97;;;1.45;;
30647;SDS011;17683;53.360;9.736;2022-08-30T01:49:38;7.15;;;1.88;;
30647;SDS011;17683;53.360;9.736;2022-08-30T01:52:05;3.03;;;1.33;;
30647;SDS011;17683;53.360;9.736;2022-08-30T01:54:32;2.97;;;1.60;;
30647;SDS011;17683;53.360;9.736;2022-08-30T01:56:59;2.33;;;1.40;;
30647;SDS011;17683;53.360;9.736;2022-08-30T01:59:25;1.70;;;1.48;;
30647;SDS011;17683;53.360;9.736;2022-08-30T02:01:51;2.33;;;1.70;;
30647;SDS011;17683;53.360;9.736;2022-08-30T02:04:17;5.13;;;2.08;;
30647;SDS011;17683;53.360;9.736;2022-08-30T02:06:42;1.80;;;1.30;;
30647;SDS011;17683;53.360;9.736;2022-08-30T02:09:09;4.57;;;1.60;;
30647;SDS011;17683;53.360;9.736;2022-08-30T02:11:36;4.43;;;1.77;;
30647;SDS011;17683;53.360;9.736;2022-08-30T02:14:02;2.10;;;1.20;;
30647;SDS011;17683;53.360;9.736;2022-08-30T02:16:28;1.92;;;1.55;;
30647;SDS011;17683;53.360;9.736;2022-08-30T02:18:54;3.55;;;1.67;;
30647;SDS011;17683;53.360;9.736;2022-08-30T02:21:21;2.60;;;1.65;;
30647;SDS011;17683;53.360;9.736;2022-08-30T02:23:47;2.50;;;1.38;;
30647;SDS011;17683;53.360;9.736;2022-08-30T02:26:14;2.00;;;1.48;;
30647;SDS011;17683;53.360;9.736;2022-08-30T02:28:41;2.55;;;1.40;;
30647;SDS011;17683;53.360;9.736;2022-08-30T02:31:07;2.78;;;1.52;;
30647;SDS011;17683;53.360;9.736;2022-08-30T02:33:32;2.45;;;1.60;;
30647;SDS011;17683;53.360;9.736;2022-08-30T02:35:58;3.15;;;1.85;;
30647;SDS011;17683;53.360;9.736;2022-08-30T02:38:24;5.82;;;1.77;;
30647;SDS011;17683;53.360;9.736;2022-08-30T02:40:51;5.78;;;2.15;;
30647;SDS011;17683;53.360;9.736;2022-08-30T02:43:16;3.38;;;1.90;;
30647;SDS011;17683;53.360;9.736;2022-08-30T02:45:42;6.75;;;2.75;;
30647;SDS011;17683;53.360;9.736;2022-08-30T02:48:08;3.38;;;1.55;;
30647;SDS011;17683;53.360;9.736;2022-08-30T02:50:37;4.68;;;1.58;;
30647;SDS011;17683;53.360;9.736;2022-08-30T02:53:07;3.10;;;1.48;;
30647;SDS011;17683;53.360;9.736;2022-08-30T02:55:33;3.50;;;1.65;;
30647;SDS011;17683;53.360;9.736;2022-08-30T02:57:58;1.42;;;1.20;;
30647;SDS011;17683;53.360;9.736;2022-08-30T03:00:24;3.83;;;1.90;;
30647;SDS011;17683;53.360;9.736;2022-08-30T03:02:50;4.03;;;1.85;;
30647;SDS011;17683;53.360;9.736;2022-08-30T03:05:16;3.92;;;1.70;;
30647;SDS011;17683;53.360;9.736;2022-08-30T03:07:42;2.65;;;1.27;;
30647;SDS011;17683;53.360;9.736;2022-08-30T03:10:09;4.22;;;1.90;;
30647;SDS011;17683;53.360;9.736;2022-08-30T03:12:36;2.88;;;1.67;;
30647;SDS011;17683;53.360;9.736;2022-08-30T03:15:03;2.95;;;1.73;;
30647;SDS011;17683;53.360;9.736;2022-08-30T03:17:30;1.88;;;1.60;;
30647;SDS011;17683;53.360;9.736;2022-08-30T03:19:56;2.65;;;1.63;;
30647;SDS011;17683;53.360;9.736;2022-08-30T03:22:24;2.17;;;1.67;;
30647;SDS011;17683;53.360;9.736;2022-08-30T03:24:50;2.28;;;1.40;;
30647;SDS011;17683;53.360;9.736;2022-08-30T03:27:16;2.00;;;1.40;;
30647;SDS011;17683;53.360;9.736;2022-08-30T03:29:42;4.90;;;1.70;;
30647;SDS011;17683;53.360;9.736;2022-08-30T03:32:07;2.70;;;1.63;;
30647;SDS011;17683;53.360;9.736;2022-08-30T03:34:33;4.70;;;1.77;;
30647;SDS011;17683;53.360;9.736;2022-08-30T03:36:59;2.90;;;1.67;;
30647;SDS011;17683;53.360;9.736;2022-08-30T03:39:25;4.53;;;1.88;;
30647;SDS011;17683;53.360;9.736;2022-08-30T03:41:51;4.40;;;1.95;;
30647;SDS011;17683;53.360;9.736;2022-08-30T03:44:18;3.58;;;1.70;;
30647;SDS011;17683;53.360;9.736;2022-08-30T03:46:45;2.35;;;1.40;;
30647;SDS011;17683;53.360;9.736;2022-08-30T03:49:11;2.22;;;1.35;;
30647;SDS011;17683;53.360;9.736;2022-08-30T03:51:37;4.03;;;1.77;;
30647;SDS011;17683;53.360;9.736;2022-08-30T03:54:03;4.22;;;1.80;;
30647;SDS011;17683;53.360;9.736;2022-08-30T03:56:29;2.55;;;1.50;;
30647;SDS011;17683;53.360;9.736;2022-08-30T03:58:55;2.03;;;1.15;;
30647;SDS011;17683;53.360;9.736;2022-08-30T04:01:20;1.58;;;1.30;;
30647;SDS011;17683;53.360;9.736;2022-08-30T04:03:46;2.90;;;1.73;;
30647;SDS011;17683;53.360;9.736;2022-08-30T04:06:12;2.20;;;1.38;;
30647;SDS011;17683;53.360;9.736;2022-08-30T04:08:38;2.17;;;1.38;;
30647;SDS011;17683;53.360;9.736;2022-08-30T04:11:04;2.65;;;1.80;;
30647;SDS011;17683;53.360;9.736;2022-08-30T04:13:31;2.63;;;1.60;;
30647;SDS011;17683;53.360;9.736;2022-08-30T04:15:57;2.90;;;1.58;;
30647;SDS011;17683;53.360;9.736;2022-08-30T04:18:23;2.13;;;1.35;;
30647;SDS011;17683;53.360;9.736;2022-08-30T04:20:50;3.35;;;1.48;;
30647;SDS011;17683;53.360;9.736;2022-08-30T04:23:17;3.17;;;1.38;;
30647;SDS011;17683;53.360;9.736;2022-08-30T04:25:43;5.10;;;1.48;;
30647;SDS011;17683;53.360;9.736;2022-08-30T04:28:09;1.60;;;1.50;;
30647;SDS011;17683;53.360;9.736;2022-08-30T04:30:38;3.00;;;1.60;;
30647;SDS011;17683;53.360;9.736;2022-08-30T04:33:07;1.98;;;1.25;;
30647;SDS011;17683;53.360;9.736;2022-08-30T04:35:33;3.33;;;1.70;;
30647;SDS011;17683;53.360;9.736;2022-08-30T04:37:59;2.67;;;1.40;;
30647;SDS011;17683;53.360;9.736;2022-08-30T04:40:25;4.45;;;1.63;;
30647;SDS011;17683;53.360;9.736;2022-08-30T04:42:51;2.72;;;1.48;;
30647;SDS011;17683;53.360;9.736;2022-08-30T04:45:18;5.70;;;1.60;;
30647;SDS011;17683;53.360;9.736;2022-08-30T04:47:45;3.75;;;1.45;;
30647;SDS011;17683;53.360;9.736;2022-08-30T04:50:12;4.00;;;1.55;;
30647;SDS011;17683;53.360;9.736;2022-08-30T04:52:42;6.32;;;1.50;;
30647;SDS011;17683;53.360;9.736;2022-08-30T04:55:08;3.25;;;1.40;;
30647;SDS011;17683;53.360;9.736;2022-08-30T04:57:35;3.85;;;1.83;;
30647;SDS011;17683;53.360;9.736;2022-08-30T05:00:03;2.47;;;1.60;;
30647;SDS011;17683;53.360;9.736;2022-08-30T05:02:31;2.85;;;1.50;;
30647;SDS011;17683;53.360;9.736;2022-08-30T05:04:56;2.47;;;1.42;;
30647;SDS011;17683;53.360;9.736;2022-08-30T05:07:41;4.35;;;1.42;;
30647;SDS011;17683;53.360;9.736;2022-08-30T05:10:06;4.13;;;1.70;;
30647;SDS011;17683;53.360;9.736;2022-08-30T05:12:33;6.45;;;1.75;;
30647;SDS011;17683;53.360;9.736;2022-08-30T05:14:58;2.75;;;1.77;;
30647;SDS011;17683;53.360;9.736;2022-08-30T05:17:24;4.70;;;1.95;;
30647;SDS011;17683;53.360;9.736;2022-08-30T05:19:50;3.33;;;1.60;;
30647;SDS011;17683;53.360;9.736;2022-08-30T05:22:16;7.22;;;2.45;;
30647;SDS011;17683;53.360;9.736;2022-08-30T05:24:41;3.75;;;1.55;;
30647;SDS011;17683;53.360;9.736;2022-08-30T05:27:07;6.00;;;1.70;;
30647;SDS011;17683;53.360;9.736;2022-08-30T05:29:33;4.53;;;1.80;;
30647;SDS011;17683;53.360;9.736;2022-08-30T05:31:59;7.60;;;1.63;;
30647;SDS011;17683;53.360;9.736;2022-08-30T05:34:25;5.55;;;1.83;;
30647;SDS011;17683;53.360;9.736;2022-08-30T05:36:53;3.55;;;1.88;;
30647;SDS011;17683;53.360;9.736;2022-08-30T05:39:19;5.05;;;1.23;;
30647;SDS011;17683;53.360;9.736;2022-08-30T05:41:44;2.17;;;1.10;;
30647;SDS011;17683;53.360;9.736;2022-08-30T05:44:10;2.03;;;1.38;;
30647;SDS011;17683;53.360;9.736;2022-08-30T05:46:36;2.00;;;1.70;;
30647;SDS011;17683;53.360;9.736;2022-08-30T05:49:04;5.03;;;1.13;;
30647;SDS011;17683;53.360;9.736;2022-08-30T05:51:32;2.42;;;1.60;;
30647;SDS011;17683;53.360;9.736;2022-08-30T05:53:59;2.63;;;1.50;;
30647;SDS011;17683;53.360;9.736;2022-08-30T05:56:32;5.85;;;1.85;;
30647;SDS011;17683;53.360;9.736;2022-08-30T05:59:00;4.25;;;1.80;;
30647;SDS011;17683;53.360;9.736;2022-08-30T06:01:28;2.53;;;1.60;;
30647;SDS011;17683;53.360;9.736;2022-08-30T06:03:54;3.25;;;1.33;;
30647;SDS011;17683;53.360;9.736;2022-08-30T06:06:21;4.10;;;1.75;;
30647;SDS011;17683;53.360;9.736;2022-08-30T06:08:47;2.72;;;1.30;;
30647;SDS011;17683;53.360;9.736;2022-08-30T06:11:14;6.45;;;2.85;;
30647;SDS011;17683;53.360;9.736;2022-08-30T06:13:43;5.90;;;1.40;;
30647;SDS011;17683;53.360;9.736;2022-08-30T06:16:10;6.43;;;1.90;;
30647;SDS011;17683;53.360;9.736;2022-08-30T06:18:37;5.22;;;2.22;;
30647;SDS011;17683;53.360;9.736;2022-08-30T06:21:03;3.22;;;2.15;;
30647;SDS011;17683;53.360;9.736;2022-08-30T06:23:30;3.80;;;2.08;;
30647;SDS011;17683;53.360;9.736;2022-08-30T06:25:56;3.03;;;1.85;;
30647;SDS011;17683;53.360;9.736;2022-08-30T06:28:27;4.72;;;2.40;;
30647;SDS011;17683;53.360;9.736;2022-08-30T06:30:52;3.92;;;2.13;;
30647;SDS011;17683;53.360;9.736;2022-08-30T06:33:18;2.25;;;2.05;;
30647;SDS011;17683;53.360;9.736;2022-08-30T06:35:44;3.22;;;1.77;;
30647;SDS011;17683;53.360;9.736;2022-08-30T06:38:09;2.35;;;1.60;;
30647;SDS011;17683;53.360;9.736;2022-08-30T06:40:35;3.38;;;1.95;;
30647;SDS011;17683;53.360;9.736;2022-08-30T06:43:01;4.50;;;2.40;;
30647;SDS011;17683;53.360;9.736;2022-08-30T06:45:26;6.32;;;2.47;;
30647;SDS011;17683;53.360;9.736;2022-08-30T06:47:54;4.18;;;1.90;;
30647;SDS011;17683;53.360;9.736;2022-08-30T06:50:22;2.10;;;1.50;;
30647;SDS011;17683;53.360;9.736;2022-08-30T06:52:49;3.13;;;1.88;;
30647;SDS011;17683;53.360;9.736;2022-08-30T06:55:16;4.57;;;2.10;;
30647;SDS011;17683;53.360;9.736;2022-08-30T06:57:42;6.03;;;2.08;;
30647;SDS011;17683;53.360;9.736;2022-08-30T07:00:10;2.83;;;1.80;;
30647;SDS011;17683;53.360;9.736;2022-08-30T07:02:38;5.38;;;2.00;;
30647;SDS011;17683;53.360;9.736;2022-08-30T07:05:04;4.20;;;2.30;;
30647;SDS011;17683;53.360;9.736;2022-08-30T07:07:32;2.58;;;1.60;;
30647;SDS011;17683;53.360;9.736;2022-08-30T07:10:00;4.78;;;2.13;;
30647;SDS011;17683;53.360;9.736;2022-08-30T07:12:27;3.65;;;2.28;;
30647;SDS011;17683;53.360;9.736;2022-08-30T07:14:54;4.53;;;2.45;;
30647;SDS011;17683;53.360;9.736;2022-08-30T07:17:20;3.20;;;2.05;;
30647;SDS011;17683;53.360;9.736;2022-08-30T07:20:04;3.08;;;1.70;;
30647;SDS011;17683;53.360;9.736;2022-08-30T07:22:33;5.72;;;1.90;;
30647;SDS011;17683;53.360;9.736;2022-08-30T07:24:59;3.10;;;1.83;;
30647;SDS011;17683;53.360;9.736;2022-08-30T07:27:25;3.00;;;1.88;;
30647;SDS011;17683;53.360;9.736;2022-08-30T07:29:51;3.35;;;2.30;;
30647;SDS011;17683;53.360;9.736;2022-08-30T07:32:16;4.90;;;2.05;;
30647;SDS011;17683;53.360;9.736;2022-08-30T07:34:42;5.47;;;1.85;;
30647;SDS011;17683;53.360;9.736;2022-08-30T07:37:08;4.93;;;1.77;;
30647;SDS011;17683;53.360;9.736;2022-08-30T07:39:34;3.78;;;2.10;;
30647;SDS011;17683;53.360;9.736;2022-08-30T07:41:59;4.35;;;2.08;;
30647;SDS011;17683;53.360;9.736;2022-08-30T07:44:26;1.95;;;1.63;;
30647;SDS011;17683;53.360;9.736;2022-08-30T07:46:51;4.40;;;2.22;;
30647;SDS011;17683;53.360;9.736;2022-08-30T07:49:17;3.33;;;1.75;;
30647;SDS011;17683;53.360;9.736;2022-08-30T07:51:44;5.43;;;2.35;;
30647;SDS011;17683;53.360;9.736;2022-08-30T07:54:10;2.92;;;1.80;;
30647;SDS011;17683;53.360;9.736;2022-08-30T07:56:36;2.65;;;2.10;;
30647;SDS011;17683;53.360;9.736;2022-08-30T07:59:02;4.32;;;2.05;;
30647;SDS011;17683;53.360;9.736;2022-08-30T08:01:28;2.47;;;1.95;;
30647;SDS011;17683;53.360;9.736;2022-08-30T08:03:53;4.35;;;2.10;;
30647;SDS011;17683;53.360;9.736;2022-08-30T08:06:20;4.70;;;2.17;;
30647;SDS011;17683;53.360;9.736;2022-08-30T08:08:47;6.07;;;2.75;;
30647;SDS011;17683;53.360;9.736;2022-08-30T08:11:18;3.70;;;2.05;;
30647;SDS011;17683;53.360;9.736;2022-08-30T08:13:46;3.40;;;1.80;;
30647;SDS011;17683;53.360;9.736;2022-08-30T08:16:13;2.85;;;1.90;;
30647;SDS011;17683;53.360;9.736;2022-08-30T08:18:39;3.65;;;2.28;;
30647;SDS011;17683;53.360;9.736;2022-08-30T08:21:05;4.80;;;1.80;;
30647;SDS011;17683;53.360;9.736;2022-08-30T08:23:31;6.93;;;2.10;;
30647;SDS011;17683;53.360;9.736;2022-08-30T08:25:57;5.70;;;1.90;;
30647;SDS011;17683;53.360;9.736;2022-08-30T08:28:23;3.22;;;1.90;;
30647;SDS011;17683;53.360;9.736;2022-08-30T08:30:49;4.05;;;2.03;;
30647;SDS011;17683;53.360;9.736;2022-08-30T08:33:15;6.35;;;2.03;;
30647;SDS011;17683;53.360;9.736;2022-08-30T08:35:41;6.28;;;2.20;;
30647;SDS011;17683;53.360;9.736;2022-08-30T08:38:07;2.55;;;2.35;;
30647;SDS011;17683;53.360;9.736;2022-08-30T08:43:20;4.32;;;2.65;;
30647;SDS011;17683;53.360;9.736;2022-08-30T08:48:32;5.10;;;2.38;;
30647;SDS011;17683;53.360;9.736;2022-08-30T08:51:11;6.47;;;1.80;;
30647;SDS011;17683;53.360;9.736;2022-08-30T08:54:09;5.07;;;2.22;;
30647;SDS011;17683;53.360;9.736;2022-08-30T08:56:55;4.63;;;2.40;;
30647;SDS011;17683;53.360;9.736;2022-08-30T08:59:21;5.40;;;2.75;;
30647;SDS011;17683;53.360;9.736;2022-08-30T09:01:47;5.20;;;2.33;;
30647;SDS011;17683;53.360;9.736;2022-08-30T09:04:15;7.85;;;2.30;;
30647;SDS011;17683;53.360;9.736;2022-08-30T09:09:26;4.65;;;2.38;;
30647;SDS011;17683;53.360;9.736;2022-08-30T09:11:55;8.27;;;2.60;;
30647;SDS011;17683;53.360;9.736;2022-08-30T09:14:22;5.18;;;2.13;;
30647;SDS011;17683;53.360;9.736;2022-08-30T09:16:58;4.93;;;2.63;;
30647;SDS011;17683;53.360;9.736;2022-08-30T09:19:34;3.80;;;2.40;;
30647;SDS011;17683;53.360;9.736;2022-08-30T09:22:21;4.88;;;2.28;;
30647;SDS011;17683;53.360;9.736;2022-08-30T09:27:52;2.85;;;2.05;;
30647;SDS011;17683;53.360;9.736;2022-08-30T09:30:24;6.53;;;2.30;;
30647;SDS011;17683;53.360;9.736;2022-08-30T09:32:55;10.10;;;2.30;;
30647;SDS011;17683;53.360;9.736;2022-08-30T09:38:04;4.72;;;2.00;;
30647;SDS011;17683;53.360;9.736;2022-08-30T09:40:39;4.95;;;1.60;;
30647;SDS011;17683;53.360;9.736;2022-08-30T09:45:37;2.45;;;1.48;;
30647;SDS011;17683;53.360;9.736;2022-08-30T09:50:55;4.10;;;1.35;;
30647;SDS011;17683;53.360;9.736;2022-08-30T09:53:29;6.13;;;1.50;;
30647;SDS011;17683;53.360;9.736;2022-08-30T09:56:17;1.73;;;1.30;;
30647;SDS011;17683;53.360;9.736;2022-08-30T10:01:54;1.23;;;1.08;;
30647;SDS011;17683;53.360;9.736;2022-08-30T10:04:55;1.50;;;1.02;;
30647;SDS011;17683;53.360;9.736;2022-08-30T10:07:30;2.85;;;1.25;;
30647;SDS011;17683;53.360;9.736;2022-08-30T10:10:13;2.03;;;0.80;;
30647;SDS011;17683;53.360;9.736;2022-08-30T10:15:37;3.63;;;1.05;;
30647;SDS011;17683;53.360;9.736;2022-08-30T10:23:31;2.22;;;0.80;;
30647;SDS011;17683;53.360;9.736;2022-08-30T10:26:29;1.20;;;0.63;;
30647;SDS011;17683;53.360;9.736;2022-08-30T10:28:58;1.65;;;0.63;;
30647;SDS011;17683;53.360;9.736;2022-08-30T10:37:09;1.30;;;0.80;;
30647;SDS011;17683;53.360;9.736;2022-08-30T10:39:49;1.52;;;0.80;;
30647;SDS011;17683;53.360;9.736;2022-08-30T10:42:22;1.80;;;0.60;;
30647;SDS011;17683;53.360;9.736;2022-08-30T10:45:12;2.13;;;0.90;;
30647;SDS011;17683;53.360;9.736;2022-08-30T10:47:40;2.00;;;0.60;;
30647;SDS011;17683;53.360;9.736;2022-08-30T10:55:15;1.70;;;0.80;;
30647;SDS011;17683;53.360;9.736;2022-08-30T10:57:50;1.05;;;0.77;;
30647;SDS011;17683;53.360;9.736;2022-08-30T11:00:23;1.00;;;0.75;;
30647;SDS011;17683;53.360;9.736;2022-08-30T11:06:02;2.75;;;0.70;;
30647;SDS011;17683;53.360;9.736;2022-08-30T11:09:09;2.53;;;0.70;;
30647;SDS011;17683;53.360;9.736;2022-08-30T11:14:14;1.25;;;0.70;;
30647;SDS011;17683;53.360;9.736;2022-08-30T11:16:43;0.82;;;0.70;;
30647;SDS011;17683;53.360;9.736;2022-08-30T11:22:13;2.53;;;1.00;;
30647;SDS011;17683;53.360;9.736;2022-08-30T11:32:59;1.83;;;0.90;;
30647;SDS011;17683;53.360;9.736;2022-08-30T11:46:18;2.60;;;0.80;;
30647;SDS011;17683;53.360;9.736;2022-08-30T12:00:33;1.52;;;1.10;;
30647;SDS011;17683;53.360;9.736;2022-08-30T12:05:55;1.15;;;0.88;;
30647;SDS011;17683;53.360;9.736;2022-08-30T12:18:41;3.22;;;1.08;;
30647;SDS011;17683;53.360;9.736;2022-08-30T12:26:30;3.30;;;1.20;;
30647;SDS011;17683;53.360;9.736;2022-08-30T12:29:08;3.38;;;1.17;;
30647;SDS011;17683;53.360;9.736;2022-08-30T12:31:38;3.50;;;1.17;;
30647;SDS011;17683;53.360;9.736;2022-08-30T12:34:07;1.75;;;1.02;;
30647;SDS011;17683;53.360;9.736;2022-08-30T12:36:48;1.98;;;1.02;;
30647;SDS011;17683;53.360;9.736;2022-08-30T12:39:21;2.35;;;0.95;;
30647;SDS011;17683;53.360;9.736;2022-08-30T12:41:50;1.60;;;0.85;;
30647;SDS011;17683;53.360;9.736;2022-08-30T12:44:18;7.72;;;1.25;;
30647;SDS011;17683;53.360;9.736;2022-08-30T12:46:47;2.35;;;0.80;;
30647;SDS011;17683;53.360;9.736;2022-08-30T12:49:16;2.05;;;1.08;;
30647;SDS011;17683;53.360;9.736;2022-08-30T12:51:44;1.40;;;0.82;;
30647;SDS011;17683;53.360;9.736;2022-08-30T12:54:15;4.03;;;1.00;;
30647;SDS011;17683;53.360;9.736;2022-08-30T12:56:44;2.37;;;0.90;;
30647;SDS011;17683;53.360;9.736;2022-08-30T13:02:16;1.60;;;0.85;;
30647;SDS011;17683;53.360;9.736;2022-08-30T13:04:47;1.25;;;0.90;;
30647;SDS011;17683;53.360;9.736;2022-08-30T13:07:25;2.83;;;1.23;;
30647;SDS011;17683;53.360;9.736;2022-08-30T13:12:58;1.02;;;0.90;;
30647;SDS011;17683;53.360;9.736;2022-08-30T13:15:27;2.63;;;1.02;;
30647;SDS011;17683;53.360;9.736;2022-08-30T13:18:15;3.30;;;1.20;;
30647;SDS011;17683;53.360;9.736;2022-08-30T13:20:44;4.85;;;1.15;;
30647;SDS011;17683;53.360;9.736;2022-08-30T13:23:20;1.38;;;1.00;;
30647;SDS011;17683;53.360;9.736;2022-08-30T13:25:48;2.17;;;1.50;;
30647;SDS011;17683;53.360;9.736;2022-08-30T13:28:14;1.83;;;1.00;;
30647;SDS011;17683;53.360;9.736;2022-08-30T13:30:39;3.58;;;1.30;;
30647;SDS011;17683;53.360;9.736;2022-08-30T13:33:05;3.90;;;1.30;;
30647;SDS011;17683;53.360;9.736;2022-08-30T13:35:33;1.75;;;1.10;;
30647;SDS011;17683;53.360;9.736;2022-08-30T13:37:59;1.98;;;1.00;;
30647;SDS011;17683;53.360;9.736;2022-08-30T13:40:26;1.98;;;0.95;;
30647;SDS011;17683;53.360;9.736;2022-08-30T13:42:52;2.47;;;1.20;;
30647;SDS011;17683;53.360;9.736;2022-08-30T13:45:18;1.30;;;1.10;;
30647;SDS011;17683;53.360;9.736;2022-08-30T13:47:45;2.83;;;1.50;;
30647;SDS011;17683;53.360;9.736;2022-08-30T13:50:12;3.33;;;1.10;;
30647;SDS011;17683;53.360;9.736;2022-08-30T13:52:38;2.75;;;1.17;;
30647;SDS011;17683;53.360;9.736;2022-08-30T13:55:04;1.63;;;1.20;;
30647;SDS011;17683;53.360;9.736;2022-08-30T13:57:31;4.35;;;1.20;;
30647;SDS011;17683;53.360;9.736;2022-08-30T13:59:57;1.77;;;1.40;;
30647;SDS011;17683;53.360;9.736;2022-08-30T14:02:22;2.05;;;1.25;;
30647;SDS011;17683;53.360;9.736;2022-08-30T14:04:48;4.38;;;1.23;;
30647;SDS011;17683;53.360;9.736;2022-08-30T14:07:14;7.05;;;1.42;;
30647;SDS011;17683;53.360;9.736;2022-08-30T14:09:40;1.42;;;1.00;;
30647;SDS011;17683;53.360;9.736;2022-08-30T14:12:06;3.90;;;1.55;;
30647;SDS011;17683;53.360;9.736;2022-08-30T14:14:32;2.00;;;1.10;;
30647;SDS011;17683;53.360;9.736;2022-08-30T14:16:57;1.17;;;1.08;;
30647;SDS011;17683;53.360;9.736;2022-08-30T14:19:23;3.40;;;1.25;;
30647;SDS011;17683;53.360;9.736;2022-08-30T14:21:49;4.00;;;1.38;;
30647;SDS011;17683;53.360;9.736;2022-08-30T14:24:15;2.88;;;1.20;;
30647;SDS011;17683;53.360;9.736;2022-08-30T14:26:42;1.27;;;0.90;;
30647;SDS011;17683;53.360;9.736;2022-08-30T14:29:12;2.28;;;1.15;;
30647;SDS011;17683;53.360;9.736;2022-08-30T14:31:40;1.48;;;1.00;;
30647;SDS011;17683;53.360;9.736;2022-08-30T14:34:07;4.13;;;1.30;;
30647;SDS011;17683;53.360;9.736;2022-08-30T14:36:35;3.78;;;0.80;;
30647;SDS011;17683;53.360;9.736;2022-08-30T14:39:03;2.05;;;1.42;;
30647;SDS011;17683;53.360;9.736;2022-08-30T14:41:30;3.22;;;1.27;;
30647;SDS011;17683;53.360;9.736;2022-08-30T14:43:56;4.65;;;1.10;;
30647;SDS011;17683;53.360;9.736;2022-08-30T14:46:22;6.85;;;1.20;;
30647;SDS011;17683;53.360;9.736;2022-08-30T14:48:50;2.40;;;1.30;;
30647;SDS011;17683;53.360;9.736;2022-08-30T14:51:18;2.45;;;1.27;;
30647;SDS011;17683;53.360;9.736;2022-08-30T14:53:45;5.63;;;1.10;;
30647;SDS011;17683;53.360;9.736;2022-08-30T14:56:13;1.77;;;1.02;;
30647;SDS011;17683;53.360;9.736;2022-08-30T14:58:41;1.75;;;1.10;;
30647;SDS011;17683;53.360;9.736;2022-08-30T15:01:07;2.08;;;0.80;;
30647;SDS011;17683;53.360;9.736;2022-08-30T15:03:35;5.05;;;1.20;;
30647;SDS011;17683;53.360;9.736;2022-08-30T15:06:01;1.95;;;1.23;;
30647;SDS011;17683;53.360;9.736;2022-08-30T15:08:27;2.03;;;1.30;;
30647;SDS011;17683;53.360;9.736;2022-08-30T15:10:53;3.67;;;1.23;;
30647;SDS011;17683;53.360;9.736;2022-08-30T15:13:19;5.25;;;1.25;;
30647;SDS011;17683;53.360;9.736;2022-08-30T15:15:44;1.73;;;1.10;;
30647;SDS011;17683;53.360;9.736;2022-08-30T15:18:10;1.70;;;0.85;;
30647;SDS011;17683;53.360;9.736;2022-08-30T15:20:36;1.65;;;0.93;;
30647;SDS011;17683;53.360;9.736;2022-08-30T15:23:08;2.13;;;0.90;;
30647;SDS011;17683;53.360;9.736;2022-08-30T15:25:33;1.75;;;1.10;;
30647;SDS011;17683;53.360;9.736;2022-08-30T15:27:59;2.85;;;1.20;;
30647;SDS011;17683;53.360;9.736;2022-08-30T15:30:25;3.60;;;1.10;;
30647;SDS011;17683;53.360;9.736;2022-08-30T15:32:50;2.47;;;1.40;;
30647;SDS011;17683;53.360;9.736;2022-08-30T15:35:16;2.40;;;1.40;;
30647;SDS011;17683;53.360;9.736;2022-08-30T15:37:42;5.05;;;1.23;;
30647;SDS011;17683;53.360;9.736;2022-08-30T15:40:08;3.55;;;1.48;;
30647;SDS011;17683;53.360;9.736;2022-08-30T15:42:34;2.55;;;0.93;;
30647;SDS011;17683;53.360;9.736;2022-08-30T15:45:00;2.50;;;1.27;;
30647;SDS011;17683;53.360;9.736;2022-08-30T15:47:26;1.63;;;1.20;;
30647;SDS011;17683;53.360;9.736;2022-08-30T15:49:55;3.40;;;0.95;;
30647;SDS011;17683;53.360;9.736;2022-08-30T15:52:22;1.58;;;0.95;;
30647;SDS011;17683;53.360;9.736;2022-08-30T15:54:51;1.30;;;1.10;;
30647;SDS011;17683;53.360;9.736;2022-08-30T15:57:17;4.43;;;1.05;;
30647;SDS011;17683;53.360;9.736;2022-08-30T15:59:43;2.53;;;1.27;;
30647;SDS011;17683;53.360;9.736;2022-08-30T16:02:08;4.85;;;1.10;;
30647;SDS011;17683;53.360;9.736;2022-08-30T16:04:35;5.22;;;1.08;;
30647;SDS011;17683;53.360;9.736;2022-08-30T16:07:01;1.88;;;0.98;;
30647;SDS011;17683;53.360;9.736;2022-08-30T16:09:28;2.72;;;1.10;;
30647;SDS011;17683;53.360;9.736;2022-08-30T16:11:55;1.40;;;0.90;;
30647;SDS011;17683;53.360;9.736;2022-08-30T16:14:21;4.20;;;1.30;;
30647;SDS011;17683;53.360;9.736;2022-08-30T16:16:46;3.15;;;1.00;;
30647;SDS011;17683;53.360;9.736;2022-08-30T16:19:12;3.05;;;1.23;;
30647;SDS011;17683;53.360;9.736;2022-08-30T16:21:38;2.25;;;0.90;;
30647;SDS011;17683;53.360;9.736;2022-08-30T16:24:06;3.53;;;1.13;;
30647;SDS011;17683;53.360;9.736;2022-08-30T16:26:34;3.17;;;0.90;;
30647;SDS011;17683;53.360;9.736;2022-08-30T16:29:01;1.58;;;1.15;;
30647;SDS011;17683;53.360;9.736;2022-08-30T16:31:29;2.35;;;0.98;;
30647;SDS011;17683;53.360;9.736;2022-08-30T16:33:56;3.25;;;1.30;;
30647;SDS011;17683;53.360;9.736;2022-08-30T16:36:23;4.20;;;1.20;;
30647;SDS011;17683;53.360;9.736;2022-08-30T16:38:50;1.83;;;1.05;;
30647;SDS011;17683;53.360;9.736;2022-08-30T16:41:17;3.45;;;1.05;;
30647;SDS011;17683;53.360;9.736;2022-08-30T16:43:43;2.25;;;1.08;;
30647;SDS011;17683;53.360;9.736;2022-08-30T16:46:10;3.00;;;0.90;;